Time;durP1;ratioP1;P1;durP2;ratioP2;P2;SDS_P1;SDS_P2;PMS_P1;PMS_P2;Temp;Humidity;BMP_temperature;BMP_pressure;BME280_temperature;BME280_humidity;BME280_pressure;Samples;Min_cycle;Max_cycle;Signal;HPM_P1;HPM_P2
2022/07/04 00:00:16;;;;;;;6.28;5.68;;;;;;;17.71;100.00;100868.09;4953662;29;20046;-79
2022/07/04 00:02:44;;;;;;;8.50;5.85;;;;;;;17.53;100.00;100850.22;4943847;28;20162;-80
2022/07/04 00:05:11;;;;;;;7.35;5.35;;;;;;;17.36;100.00;100860.81;4940402;29;20170;-79
2022/07/04 00:07:47;;;;;;;6.03;5.53;;;;;;;17.39;100.00;100852.66;4973092;28;20489;-80
2022/07/04 00:10:20;;;;;;;7.70;5.65;;;;;;;17.34;100.00;100854.69;4939121;29;20105;-80
2022/07/04 00:12:47;;;;;;;6.38;5.78;;;;;;;17.26;100.00;100846.16;4941074;28;20027;-79
2022/07/04 00:15:14;;;;;;;6.75;5.20;;;;;;;17.13;100.00;100844.00;4935230;29;20131;-80
2022/07/04 00:17:41;;;;;;;6.13;5.38;;;;;;;17.05;100.00;100839.94;4939886;28;20821;-80
2022/07/04 00:20:09;;;;;;;6.72;5.85;;;;;;;16.98;100.00;100827.81;4935526;29;20039;-79
2022/07/04 00:22:36;;;;;;;6.00;5.40;;;;;;;17.00;100.00;100828.63;4969426;28;20047;-80
2022/07/04 00:25:04;;;;;;;6.20;5.70;;;;;;;16.98;100.00;100823.34;4951356;29;20043;-80
2022/07/04 00:27:30;;;;;;;6.60;5.57;;;;;;;16.99;100.00;100822.44;4970357;28;20049;-81
2022/07/04 00:29:57;;;;;;;6.90;6.20;;;;;;;16.92;100.00;100833.44;4936184;29;20780;-81
2022/07/04 00:32:24;;;;;;;6.53;5.93;;;;;;;16.92;100.00;100822.75;4936114;28;20043;-80
2022/07/04 00:34:51;;;;;;;7.13;6.20;;;;;;;16.93;100.00;100816.50;4937700;28;20535;-80
2022/07/04 00:37:17;;;;;;;6.47;5.63;;;;;;;16.89;100.00;100808.59;4935869;29;20081;-77
2022/07/04 00:39:44;;;;;;;6.25;5.65;;;;;;;16.89;100.00;100815.75;4969214;28;20058;-79
2022/07/04 00:42:11;;;;;;;5.80;5.30;;;;;;;16.76;100.00;100807.41;4920992;29;20051;-80
2022/07/04 00:44:38;;;;;;;6.63;5.47;;;;;;;16.76;100.00;100812.75;4943096;23;20535;-77
2022/07/04 00:47:05;;;;;;;6.20;5.70;;;;;;;16.70;100.00;100813.00;4919576;29;20043;-78
2022/07/04 00:49:37;;;;;;;7.25;5.78;;;;;;;16.67;100.00;100804.25;4936092;29;20411;-78
2022/07/04 00:52:15;;;;;;;6.15;5.63;;;;;;;16.58;100.00;100803.72;4931421;29;20078;-78
2022/07/04 00:54:54;;;;;;;6.38;5.68;;;;;;;16.54;100.00;100806.56;4916730;28;20055;-81
2022/07/04 00:57:27;;;;;;;9.13;6.78;;;;;;;16.54;100.00;100811.91;4935928;29;20046;-79
2022/07/04 00:59:54;;;;;;;7.35;5.72;;;;;;;16.45;100.00;100807.81;4917343;29;20095;-78
2022/07/04 01:02:44;;;;;;;6.68;6.05;;;;;;;16.43;100.00;100811.50;4933098;29;20060;-79
2022/07/04 01:05:17;;;;;;;6.78;6.07;;;;;;;16.40;100.00;100809.84;4935093;29;20046;-80
2022/07/04 01:07:50;;;;;;;6.60;6.00;;;;;;;16.30;100.00;100809.34;4944421;29;20051;-78
2022/07/04 01:10:26;;;;;;;7.35;5.22;;;;;;;16.24;100.00;100803.41;4919228;29;20043;-77
2022/07/04 01:13:19;;;;;;;7.18;6.47;;;;;;;16.22;100.00;100816.78;4911521;29;20044;-80
2022/07/04 01:15:55;;;;;;;6.75;6.15;;;;;;;16.18;100.00;100814.31;4934494;29;20051;-78
2022/07/04 01:18:26;;;;;;;6.10;5.60;;;;;;;16.12;100.00;100820.75;4920704;29;20099;-78
2022/07/04 01:20:59;;;;;;;7.50;6.18;;;;;;;16.09;100.00;100825.34;4906418;29;20043;-78
2022/07/04 01:23:27;;;;;;;6.70;6.20;;;;;;;16.00;100.00;100831.94;4905418;28;20039;-77
2022/07/04 01:25:56;;;;;;;6.53;5.93;;;;;;;15.95;100.00;100834.75;4946627;29;20035;-76
2022/07/04 01:28:27;;;;;;;6.10;5.60;;;;;;;15.98;100.00;100834.66;4915530;29;20050;-75
2022/07/04 01:30:54;;;;;;;6.53;5.93;;;;;;;15.92;100.00;100829.56;4943317;28;20071;-77
2022/07/04 01:33:20;;;;;;;6.78;6.05;;;;;;;15.90;100.00;100835.91;4931120;29;20054;-76
2022/07/04 01:35:47;;;;;;;6.22;5.72;;;;;;;15.88;100.00;100832.41;4909964;29;20039;-77
2022/07/04 01:38:14;;;;;;;6.75;6.05;;;;;;;15.86;100.00;100840.47;4946772;28;20039;-78
2022/07/04 01:40:40;;;;;;;6.40;5.90;;;;;;;15.82;100.00;100838.88;4925237;29;20035;-76
2022/07/04 01:43:07;;;;;;;6.88;6.28;;;;;;;15.83;100.00;100837.06;4915619;29;20067;-76
2022/07/04 01:45:37;;;;;;;6.75;6.10;;;;;;;15.77;100.00;100840.81;4922587;29;20126;-79
2022/07/04 01:48:09;;;;;;;6.70;6.05;;;;;;;15.73;100.00;100844.56;4919585;29;20127;-77
2022/07/04 01:50:36;;;;;;;6.75;6.15;;;;;;;15.73;100.00;100842.75;4914960;29;20103;-76
2022/07/04 01:53:03;;;;;;;7.82;7.15;;;;;;;15.68;100.00;100843.84;4930466;29;20040;-78
2022/07/04 01:55:30;;;;;;;6.55;5.93;;;;;;;15.64;100.00;100840.44;4934075;29;20043;-77
2022/07/04 01:57:57;;;;;;;7.43;6.53;;;;;;;15.63;100.00;100844.00;4928413;29;20065;-77
2022/07/04 02:03:09;;;;;;;6.15;5.65;;;;;;;15.60;100.00;100849.44;4929396;29;20069;-78
2022/07/04 02:05:37;;;;;;;6.93;6.20;;;;;;;15.58;100.00;100845.09;4924532;29;20035;-80
2022/07/04 02:08:04;;;;;;;6.70;6.13;;;;;;;15.50;100.00;100848.06;4911674;29;20072;-79
2022/07/04 02:10:31;;;;;;;7.60;6.80;;;;;;;15.55;100.00;100842.53;4922472;29;20469;-79
2022/07/04 02:13:01;;;;;;;7.10;6.47;;;;;;;15.44;100.00;100853.59;4920256;29;20050;-79
2022/07/04 02:15:31;;;;;;;7.32;6.03;;;;;;;15.31;100.00;100853.19;4916885;29;20043;-79
2022/07/04 02:17:59;;;;;;;6.85;6.25;;;;;;;15.28;100.00;100863.06;4931570;29;20578;-79
2022/07/04 02:20:26;;;;;;;7.45;5.38;;;;;;;15.23;100.00;100865.91;4922789;28;20126;-75
2022/07/04 02:22:53;;;;;;;6.80;6.10;;;;;;;15.19;100.00;100870.47;4923221;29;20043;-78
2022/07/04 02:25:19;;;;;;;7.10;6.50;;;;;;;15.19;100.00;100864.28;4936283;29;20083;-79
2022/07/04 02:27:46;;;;;;;6.78;6.18;;;;;;;15.20;100.00;100866.88;4956539;29;20035;-79
2022/07/04 02:30:13;;;;;;;7.15;6.45;;;;;;;15.20;100.00;100864.22;4919845;29;20044;-80
2022/07/04 02:32:40;;;;;;;6.93;6.30;;;;;;;15.19;100.00;100870.47;4937601;29;20058;-79
2022/07/04 02:35:08;;;;;;;8.43;7.72;;;;;;;15.26;100.00;100870.25;4923230;29;20511;-78
2022/07/04 02:37:35;;;;;;;7.20;6.50;;;;;;;15.23;100.00;100873.03;4937825;29;20477;-79
2022/07/04 02:40:02;;;;;;;7.10;6.50;;;;;;;15.15;100.00;100875.97;4910651;29;20051;-78
2022/07/04 02:42:30;;;;;;;7.25;6.47;;;;;;;15.11;100.00;100874.34;4912405;28;20468;-78
2022/07/04 02:44:57;;;;;;;7.95;7.25;;;;;;;15.13;100.00;100875.13;4943223;29;20071;-78
2022/07/04 02:47:24;;;;;;;7.97;7.18;;;;;;;15.16;100.00;100873.25;4933684;28;20524;-77
2022/07/04 02:49:51;;;;;;;7.80;7.10;;;;;;;15.12;100.00;100881.38;4951376;29;20929;-78
2022/07/04 02:52:18;;;;;;;7.28;6.65;;;;;;;15.05;100.00;100883.41;4940655;29;20134;-79
2022/07/04 02:54:46;;;;;;;7.57;6.72;;;;;;;15.00;100.00;100884.50;4939485;29;20532;-79
2022/07/04 02:57:13;;;;;;;8.10;7.40;;;;;;;15.04;100.00;100889.63;4937384;29;20043;-79
2022/07/04 02:59:40;;;;;;;7.60;6.90;;;;;;;15.06;100.00;100874.50;4937233;29;20484;-79
2022/07/04 03:02:06;;;;;;;7.40;6.80;;;;;;;15.10;100.00;100881.44;4931571;29;20048;-79
2022/07/04 03:04:33;;;;;;;8.18;7.43;;;;;;;15.06;100.00;100885.16;4937060;29;20106;-79
2022/07/04 03:07:00;;;;;;;8.27;7.47;;;;;;;14.98;100.00;100878.38;4947429;29;20043;-78
2022/07/04 03:09:27;;;;;;;8.90;8.10;;;;;;;15.04;100.00;100880.78;4917905;29;20043;-77
2022/07/04 03:11:54;;;;;;;7.97;7.28;;;;;;;15.02;100.00;100882.63;4915954;29;20609;-79
2022/07/04 03:14:20;;;;;;;8.73;7.93;;;;;;;14.98;100.00;100887.22;4919657;29;20043;-78
2022/07/04 03:16:47;;;;;;;7.00;6.30;;;;;;;14.95;100.00;100891.75;4920207;29;20059;-78
2022/07/04 03:19:15;;;;;;;7.55;6.85;;;;;;;14.91;100.00;100893.66;4937239;29;20206;-78
2022/07/04 03:21:41;;;;;;;7.72;7.03;;;;;;;14.93;100.00;100891.81;4916999;29;20493;-79
2022/07/04 03:24:09;;;;;;;8.70;7.90;;;;;;;15.02;100.00;100896.81;4928870;29;20039;-78
2022/07/04 03:26:35;;;;;;;7.72;7.10;;;;;;;15.00;100.00;100896.00;4922495;28;20448;-79
2022/07/04 03:29:02;;;;;;;8.70;7.80;;;;;;;15.08;100.00;100904.59;4928600;29;20524;-79
2022/07/04 03:31:31;;;;;;;7.53;6.82;;;;;;;15.08;100.00;100901.06;4926593;29;20506;-78
2022/07/04 03:33:58;;;;;;;7.95;7.25;;;;;;;15.14;100.00;100906.19;4935606;29;20075;-79
2022/07/04 03:36:25;;;;;;;9.05;8.20;;;;;;;15.24;100.00;100896.06;4916680;29;20323;-78
2022/07/04 03:38:52;;;;;;;12.48;9.40;;;;;;;15.33;100.00;100893.06;4955018;29;20509;-78
2022/07/04 03:41:18;;;;;;;10.05;9.07;;;;;;;15.38;100.00;100894.63;4937227;29;20098;-79
2022/07/04 03:43:45;;;;;;;11.13;9.48;;;;;;;15.43;100.00;100900.66;4955821;29;20500;-79
2022/07/04 03:46:12;;;;;;;11.82;10.57;;;;;;;15.53;100.00;100905.63;4934586;29;20047;-79
2022/07/04 03:48:38;;;;;;;10.88;9.88;;;;;;;15.61;100.00;100909.78;4937864;29;20040;-77
2022/07/04 03:51:05;;;;;;;14.30;12.30;;;;;;;15.74;100.00;100923.53;4903565;29;20419;-78
2022/07/04 03:53:32;;;;;;;16.13;13.55;;;;;;;15.84;100.00;100916.91;4920285;28;20082;-78
2022/07/04 03:55:59;;;;;;;16.65;13.45;;;;;;;15.88;100.00;100912.34;4954860;29;20185;-78
2022/07/04 03:58:25;;;;;;;15.48;13.88;;;;;;;15.93;100.00;100915.69;4925027;29;20039;-79
2022/07/04 04:00:52;;;;;;;18.15;16.08;;;;;;;16.06;100.00;100924.97;4934272;29;20611;-79
2022/07/04 04:06:04;;;;;;;16.33;14.73;;;;;;;16.13;100.00;100936.25;4937113;29;20045;-79
2022/07/04 04:08:31;;;;;;;18.83;16.88;;;;;;;16.24;100.00;100942.91;4960156;29;20043;-79
2022/07/04 04:10:57;;;;;;;17.08;15.23;;;;;;;16.31;100.00;100941.75;4903512;29;20048;-79
2022/07/04 04:13:24;;;;;;;18.95;16.98;;;;;;;16.37;100.00;100945.94;4931734;29;20055;-80
2022/07/04 04:15:50;;;;;;;17.95;16.02;;;;;;;16.40;100.00;100952.97;4913503;29;20540;-79
2022/07/04 04:18:17;;;;;;;15.93;14.30;;;;;;;16.37;100.00;100953.94;4921623;29;20417;-78
2022/07/04 04:20:44;;;;;;;18.30;16.00;;;;;;;16.45;100.00;100964.31;4927191;29;20047;-78
2022/07/04 04:23:10;;;;;;;18.58;16.45;;;;;;;16.49;100.00;100968.59;4924109;29;20488;-80
2022/07/04 04:25:37;;;;;;;20.48;17.20;;;;;;;16.58;100.00;100976.22;4923317;29;20055;-78
2022/07/04 04:28:04;;;;;;;17.85;15.77;;;;;;;16.59;100.00;100972.63;4933771;29;20032;-79
2022/07/04 04:30:30;;;;;;;17.40;15.63;;;;;;;16.68;100.00;100982.06;4923634;28;20043;-78
2022/07/04 04:32:57;;;;;;;16.17;14.55;;;;;;;16.68;100.00;100980.25;4923249;29;20054;-78
2022/07/04 04:35:24;;;;;;;15.50;13.85;;;;;;;16.72;100.00;100975.69;4926484;29;20143;-79
2022/07/04 04:37:50;;;;;;;17.50;15.43;;;;;;;16.78;100.00;100970.09;4899459;29;20043;-79
2022/07/04 04:40:17;;;;;;;14.57;13.13;;;;;;;16.72;100.00;100981.88;4922826;29;20050;-78
2022/07/04 04:42:44;;;;;;;17.17;15.38;;;;;;;16.70;100.00;100974.88;4940121;29;20054;-80
2022/07/04 04:45:11;;;;;;;16.55;14.93;;;;;;;16.73;100.00;100978.31;4938495;29;20047;-79
2022/07/04 04:47:37;;;;;;;12.25;11.05;;;;;;;16.73;100.00;100978.31;4936681;29;20055;-79
2022/07/04 04:50:04;;;;;;;17.80;14.60;;;;;;;16.91;100.00;100989.16;4932712;29;20519;-79
2022/07/04 04:52:31;;;;;;;16.10;14.20;;;;;;;17.01;100.00;100986.03;4910045;29;20061;-78
2022/07/04 04:54:58;;;;;;;15.07;12.88;;;;;;;17.15;100.00;100991.66;4939842;29;20047;-80
2022/07/04 04:57:24;;;;;;;13.95;12.25;;;;;;;17.40;100.00;100995.94;4938414;29;20131;-80
2022/07/04 04:59:51;;;;;;;14.32;12.82;;;;;;;17.56;100.00;101010.34;4922347;29;20046;-78
2022/07/04 05:02:21;;;;;;;11.77;10.57;;;;;;;17.61;100.00;101018.19;4937997;29;20130;-80
2022/07/04 05:04:48;;;;;;;15.00;13.45;;;;;;;17.51;100.00;101000.84;4939518;29;20063;-79
2022/07/04 05:07:14;;;;;;;14.02;12.55;;;;;;;17.60;100.00;101000.44;4911999;29;20416;-79
2022/07/04 05:09:41;;;;;;;12.20;10.95;;;;;;;17.66;100.00;101001.03;4924597;29;20057;-80
2022/07/04 05:12:17;;;;;;;11.52;10.43;;;;;;;17.78;100.00;101004.97;4934608;29;20097;-81
2022/07/04 05:14:52;;;;;;;9.98;8.88;;;;;;;17.78;100.00;101010.31;4921401;29;20130;-78
2022/07/04 05:17:19;;;;;;;10.98;9.88;;;;;;;17.82;100.00;101000.34;4953146;28;20478;-80
2022/07/04 05:19:47;;;;;;;11.80;9.43;;;;;;;17.91;100.00;101006.19;4927262;29;20040;-78
2022/07/04 05:22:14;;;;;;;10.77;9.60;;;;;;;18.07;100.00;101010.78;4907517;29;20074;-78
2022/07/04 05:24:41;;;;;;;12.77;9.40;;;;;;;18.17;100.00;101007.66;4928493;28;20492;-79
2022/07/04 05:27:09;;;;;;;9.98;9.00;;;;;;;18.33;100.00;101021.19;4926746;29;20130;-79
2022/07/04 05:29:36;;;;;;;10.32;9.23;;;;;;;18.31;100.00;101023.03;4929929;29;20051;-79
2022/07/04 05:32:03;;;;;;;9.23;8.32;;;;;;;18.28;100.00;101026.72;4907355;29;20044;-79
2022/07/04 05:34:30;;;;;;;7.60;6.90;;;;;;;18.27;100.00;101030.34;4918370;29;20139;-78
2022/07/04 05:36:57;;;;;;;8.07;7.40;;;;;;;18.30;100.00;101037.34;4918614;29;20091;-81
2022/07/04 05:39:23;;;;;;;8.40;7.57;;;;;;;18.35;100.00;101035.34;4922418;29;20050;-78
2022/07/04 05:41:50;;;;;;;8.27;7.57;;;;;;;18.33;100.00;101033.66;4918151;29;20051;-77
2022/07/04 05:44:17;;;;;;;7.68;6.97;;;;;;;18.25;100.00;101039.41;4923580;29;20050;-81
2022/07/04 05:46:44;;;;;;;7.65;6.95;;;;;;;18.22;100.00;101035.03;4936242;29;20169;-81
2022/07/04 05:49:10;;;;;;;8.07;7.32;;;;;;;18.82;100.00;101040.25;4916241;29;20050;-79
2022/07/04 05:51:37;;;;;;;6.05;5.45;;;;;;;19.75;100.00;101032.88;4952564;29;20049;-80
2022/07/04 05:54:04;;;;;;;6.25;4.53;;;;;;;20.62;100.00;101038.91;4898035;29;20044;-78
2022/07/04 05:56:30;;;;;;;5.28;3.90;;;;;;;21.55;99.35;101035.31;4949047;28;20039;-78
2022/07/04 05:58:57;;;;;;;4.03;3.45;;;;;;;22.61;88.07;101032.25;4904607;29;20075;-79
2022/07/04 06:01:24;;;;;;;3.72;3.05;;;;;;;22.33;83.49;101035.88;4921010;29;20046;-81
2022/07/04 06:03:51;;;;;;;3.92;2.90;;;;;;;22.09;86.61;101033.75;4924321;29;20820;-82
2022/07/04 06:06:17;;;;;;;3.58;2.85;;;;;;;22.29;86.90;101034.34;4934405;29;20047;-79
2022/07/04 06:08:44;;;;;;;2.80;2.58;;;;;;;23.52;82.42;101038.78;4936823;29;20090;-80
2022/07/04 06:11:11;;;;;;;4.03;2.38;;;;;;;24.28;77.28;101043.38;4931512;29;20047;-81
2022/07/04 06:13:37;;;;;;;3.75;2.75;;;;;;;24.21;76.55;101052.88;4920497;28;20050;-78
2022/07/04 06:16:04;;;;;;;2.67;2.47;;;;;;;23.89;79.84;101049.78;4919569;29;20047;-81
2022/07/04 06:18:31;;;;;;;4.07;3.10;;;;;;;23.39;77.87;101049.56;4920965;29;20035;-81
2022/07/04 06:20:57;;;;;;;2.88;2.38;;;;;;;23.38;79.14;101047.84;4903867;29;20046;-78
2022/07/04 06:23:24;;;;;;;3.80;2.83;;;;;;;22.77;78.30;101060.81;4920112;29;20438;-79
2022/07/04 06:25:51;;;;;;;2.60;2.40;;;;;;;21.91;82.27;101062.66;4932250;29;20047;-81
2022/07/04 06:28:18;;;;;;;4.60;2.72;;;;;;;21.14;89.80;101065.47;4917090;29;20126;-78
2022/07/04 06:31:04;;;;;;;3.65;2.85;;;;;;;20.22;92.52;101072.41;4932640;29;20071;-79
2022/07/04 06:33:31;;;;;;;3.20;2.40;;;;;;;20.28;93.66;101068.53;4924438;29;20130;-80
2022/07/04 06:35:58;;;;;;;2.45;2.22;;;;;;;20.44;97.28;101064.09;4933238;29;20122;-78
2022/07/04 06:38:26;;;;;;;2.97;2.67;;;;;;;20.55;92.04;101074.22;4935603;29;20039;-78
2022/07/04 06:40:58;;;;;;;2.97;2.35;;;;;;;20.49;89.20;101073.59;4914053;29;20047;-79
2022/07/04 06:43:25;;;;;;;2.70;2.50;;;;;;;20.38;93.67;101075.13;4901056;29;20054;-78
2022/07/04 06:45:52;;;;;;;3.13;2.45;;;;;;;20.25;96.62;101078.44;4999975;23;20694;-80
2022/07/04 06:48:19;;;;;;;3.15;2.42;;;;;;;20.36;98.26;101085.06;4999146;28;20406;-79
2022/07/04 06:50:46;;;;;;;2.35;2.15;;;;;;;20.20;93.18;101079.66;4978559;28;20542;-80
2022/07/04 06:53:12;;;;;;;4.13;2.85;;;;;;;20.30;95.08;101078.22;4946332;28;20046;-79
2022/07/04 06:55:41;;;;;;;2.25;2.00;;;;;;;20.62;90.86;101079.16;4968043;28;20049;-80
2022/07/04 06:58:09;;;;;;;2.42;2.20;;;;;;;20.54;87.24;101081.41;4978671;28;20035;-80
2022/07/04 07:00:36;;;;;;;2.55;2.30;;;;;;;20.52;87.76;101077.94;4980809;28;20041;-80
2022/07/04 07:03:04;;;;;;;3.78;2.28;;;;;;;20.58;89.65;101080.28;4930885;28;20092;-79
2022/07/04 07:05:31;;;;;;;2.58;2.22;;;;;;;21.00;89.02;101084.19;4966165;28;20048;-79
2022/07/04 07:08:17;;;;;;;4.53;2.35;;;;;;;21.71;87.08;101089.03;4966680;28;20041;-80
2022/07/04 07:10:44;;;;;;;3.45;2.30;;;;;;;22.28;79.97;101087.31;4989145;28;20034;-80
2022/07/04 07:13:11;;;;;;;2.53;2.20;;;;;;;22.35;80.87;101080.56;4980361;28;20101;-79
2022/07/04 07:15:38;;;;;;;2.28;2.00;;;;;;;22.91;74.95;101070.72;4972951;28;20050;-80
2022/07/04 07:18:05;;;;;;;2.00;1.80;;;;;;;23.12;72.12;101072.97;4952115;28;20508;-80
2022/07/04 07:20:32;;;;;;;2.22;1.92;;;;;;;22.99;73.33;101078.31;4984008;28;20415;-79
2022/07/04 07:23:02;;;;;;;2.85;2.20;;;;;;;22.53;71.04;101083.06;4953110;29;20094;-80
2022/07/04 07:25:29;;;;;;;2.40;1.90;;;;;;;22.19;73.40;101088.72;4992735;28;20125;-80
2022/07/04 07:27:57;;;;;;;2.25;1.77;;;;;;;22.52;71.28;101084.88;4967927;28;20042;-79
2022/07/04 07:30:24;;;;;;;2.03;1.83;;;;;;;22.44;71.67;101093.44;4961482;28;20579;-78
2022/07/04 07:32:50;;;;;;;3.92;2.10;;;;;;;21.99;71.59;101093.59;4993928;28;20039;-79
2022/07/04 07:35:17;;;;;;;1.95;1.83;;;;;;;21.79;72.35;101100.19;4981973;28;20035;-80
2022/07/04 07:37:43;;;;;;;2.88;1.90;;;;;;;21.64;76.90;101107.34;4971830;28;20054;-78
2022/07/04 07:40:10;;;;;;;2.30;1.77;;;;;;;21.59;71.40;101096.84;4974715;28;20409;-79
2022/07/04 07:42:37;;;;;;;2.15;1.92;;;;;;;21.79;73.30;101095.69;4973898;28;20043;-79
2022/07/04 07:45:04;;;;;;;2.67;1.70;;;;;;;21.77;73.52;101092.19;4955413;28;20038;-79
2022/07/04 07:47:31;;;;;;;2.17;1.50;;;;;;;22.05;71.91;101094.09;4970799;28;20506;-80
2022/07/04 07:49:58;;;;;;;1.90;1.70;;;;;;;22.52;68.54;101097.50;4968875;28;20100;-80
2022/07/04 07:52:24;;;;;;;2.25;1.60;;;;;;;22.71;68.48;101092.69;4974050;28;20047;-79
2022/07/04 07:54:53;;;;;;;2.17;1.60;;;;;;;23.17;65.49;101103.19;4958605;28;20550;-80
2022/07/04 07:57:29;;;;;;;2.90;1.40;;;;;;;22.83;65.97;101099.09;4968833;28;20046;-81
2022/07/04 07:59:55;;;;;;;2.60;1.80;;;;;;;22.98;65.75;101093.63;4976996;28;20044;-79
2022/07/04 08:05:08;;;;;;;2.30;1.50;;;;;;;22.55;64.55;101108.94;4976057;28;20097;-79
2022/07/04 08:07:35;;;;;;;2.80;1.63;;;;;;;22.72;66.47;101097.97;4994064;28;20069;-80
2022/07/04 08:10:03;;;;;;;2.53;1.58;;;;;;;23.06;63.94;101101.19;4963365;28;20045;-80
2022/07/04 08:12:29;;;;;;;3.65;2.05;;;;;;;23.13;63.40;101099.84;4977306;28;20125;-81
2022/07/04 08:14:56;;;;;;;2.40;1.50;;;;;;;23.56;63.04;101105.06;4934701;28;20046;-80
2022/07/04 08:17:31;;;;;;;2.47;1.98;;;;;;;23.84;64.39;101109.44;4984800;28;20479;-80
2022/07/04 08:19:58;;;;;;;3.30;2.05;;;;;;;24.08;60.04;101110.44;4938573;28;20046;-80
2022/07/04 08:22:24;;;;;;;2.63;1.60;;;;;;;24.30;55.39;101107.13;4967293;28;20491;-81
2022/07/04 08:24:51;;;;;;;2.30;1.67;;;;;;;24.20;57.18;101111.41;4991265;28;20050;-80
2022/07/04 08:27:20;;;;;;;3.35;1.40;;;;;;;24.02;54.72;101102.78;4976838;28;20056;-79
2022/07/04 08:29:46;;;;;;;7.65;2.03;;;;;;;24.06;58.27;101101.59;4959374;28;20047;-80
2022/07/04 08:32:14;;;;;;;2.15;1.40;;;;;;;24.19;58.40;101096.19;4968126;28;20069;-79
2022/07/04 08:34:42;;;;;;;2.05;1.50;;;;;;;24.35;56.06;101096.00;4956868;28;20097;-81
2022/07/04 08:37:09;;;;;;;1.95;1.33;;;;;;;24.46;55.98;101098.78;4951986;28;20043;-80
2022/07/04 08:39:36;;;;;;;1.80;1.35;;;;;;;24.50;52.91;101089.50;4940509;28;20041;-80
2022/07/04 08:42:06;;;;;;;2.35;1.60;;;;;;;24.49;52.93;101098.59;4947084;29;20047;-80
2022/07/04 08:44:38;;;;;;;3.55;1.52;;;;;;;24.80;53.68;101096.34;4978325;28;20037;-80
2022/07/04 08:47:09;;;;;;;2.45;1.42;;;;;;;24.36;53.56;101105.84;4971970;28;20050;-79
2022/07/04 08:49:44;;;;;;;2.20;1.40;;;;;;;23.70;52.70;101102.28;4971516;28;20045;-79
2022/07/04 08:52:12;;;;;;;3.15;1.58;;;;;;;23.66;53.65;101110.72;4976081;28;20126;-80
2022/07/04 09:00:09;;;;;;;2.13;1.58;;;;;;;24.25;56.38;101097.59;4981145;28;20038;-80
2022/07/04 09:02:37;;;;;;;1.92;1.48;;;;;;;24.77;54.28;101100.16;4969679;28;20048;-80
2022/07/04 09:05:06;;;;;;;1.38;1.25;;;;;;;24.60;51.54;101093.28;4974005;28;20053;-79
2022/07/04 09:07:33;;;;;;;2.83;1.40;;;;;;;25.01;50.19;101094.78;4977046;28;20122;-79
2022/07/04 09:09:59;;;;;;;2.05;1.27;;;;;;;25.26;48.34;101096.56;4966585;28;20038;-79
2022/07/04 09:12:26;;;;;;;2.35;1.27;;;;;;;25.08;47.34;101085.28;4994353;28;20083;-79
2022/07/04 09:14:53;;;;;;;1.52;1.25;;;;;;;24.85;49.30;101096.91;4999507;28;20065;-79
2022/07/04 09:17:20;;;;;;;1.60;1.25;;;;;;;24.18;49.64;101104.41;4990498;28;20050;-80
2022/07/04 09:20:10;;;;;;;2.80;1.30;;;;;;;23.81;49.81;101101.59;4990105;28;20046;-80
2022/07/04 09:22:37;;;;;;;1.55;1.20;;;;;;;24.28;52.40;101110.88;4974516;28;20050;-79
2022/07/04 09:25:05;;;;;;;2.33;1.30;;;;;;;24.54;49.90;101125.25;4949963;28;20050;-79
2022/07/04 09:27:37;;;;;;;1.30;1.15;;;;;;;24.67;48.55;101109.91;4972231;28;20123;-78
2022/07/04 09:30:05;;;;;;;1.52;1.25;;;;;;;25.14;47.62;101117.28;4957612;28;20043;-77
2022/07/04 09:32:40;;;;;;;1.70;1.05;;;;;;;25.62;46.53;101108.28;4977047;28;20042;-77
2022/07/04 09:35:09;;;;;;;2.08;1.20;;;;;;;25.38;46.38;101111.84;4976027;28;20042;-77
2022/07/04 09:37:38;;;;;;;1.15;1.05;;;;;;;25.26;46.07;101113.66;4941362;28;20050;-78
2022/07/04 09:40:07;;;;;;;1.30;1.20;;;;;;;24.73;46.29;101114.00;4960361;28;20103;-79
2022/07/04 09:42:35;;;;;;;2.25;1.40;;;;;;;24.61;46.41;101116.59;4972134;28;20046;-78
2022/07/04 09:45:08;;;;;;;1.90;1.00;;;;;;;24.56;46.16;101116.09;4971319;28;20555;-79
2022/07/04 09:47:34;;;;;;;1.83;1.23;;;;;;;24.31;47.26;101111.53;4975930;28;20419;-78
2022/07/04 09:50:07;;;;;;;1.38;1.20;;;;;;;24.11;47.95;101122.88;4983985;28;20045;-78
2022/07/04 09:52:46;;;;;;;1.40;1.20;;;;;;;24.37;49.36;101108.41;4992119;28;20404;-79
2022/07/04 09:55:20;;;;;;;3.65;1.73;;;;;;;24.72;47.28;101118.56;4974005;28;20043;-78
2022/07/04 09:57:47;;;;;;;1.95;1.30;;;;;;;24.80;47.13;101109.88;4969688;28;20042;-79
2022/07/04 10:00:25;;;;;;;30.92;4.95;;;;;;;25.49;45.15;101113.78;4973448;28;20038;-78
2022/07/04 10:02:52;;;;;;;1.30;1.20;;;;;;;26.11;44.00;101099.94;4986569;28;20786;-78
2022/07/04 10:05:24;;;;;;;1.48;1.20;;;;;;;26.59;44.08;101105.19;4963142;28;20042;-78
2022/07/04 10:07:51;;;;;;;1.70;1.13;;;;;;;26.81;42.25;101101.59;4993166;28;20034;-79
2022/07/04 10:10:25;;;;;;;2.67;1.20;;;;;;;26.38;42.82;101113.19;4962301;28;20131;-79
2022/07/04 10:12:53;;;;;;;2.13;1.10;;;;;;;25.80;44.16;101121.28;4982005;28;20102;-78
2022/07/04 10:15:21;;;;;;;2.72;1.60;;;;;;;25.00;42.77;101112.00;4982219;28;20407;-78
2022/07/04 10:17:48;;;;;;;1.90;1.40;;;;;;;25.23;44.29;101119.28;4977555;28;20134;-78
2022/07/04 10:20:14;;;;;;;2.72;1.42;;;;;;;25.17;43.29;101118.88;4955706;28;20041;-79
2022/07/04 10:22:41;;;;;;;2.72;1.25;;;;;;;25.75;44.58;101114.50;4972289;28;20053;-78
2022/07/04 10:25:09;;;;;;;1.48;1.20;;;;;;;25.39;43.97;101112.72;4948688;28;20452;-79
2022/07/04 10:27:36;;;;;;;2.30;1.48;;;;;;;24.85;44.11;101118.50;4972715;28;20445;-79
2022/07/04 10:30:06;;;;;;;3.20;1.23;;;;;;;25.27;44.03;101115.38;4964902;28;20073;-79
2022/07/04 10:32:33;;;;;;;2.47;1.30;;;;;;;25.34;42.50;101098.69;4976950;28;20561;-78
2022/07/04 10:35:00;;;;;;;1.30;1.20;;;;;;;25.84;41.02;101113.81;4990434;28;20475;-79
2022/07/04 10:37:59;;;;;;;1.83;1.10;;;;;;;26.10;39.93;101093.69;4989526;28;20048;-79
2022/07/04 10:40:50;;;;;;;2.30;1.30;;;;;;;26.62;42.78;101092.25;4984626;28;20444;-78
2022/07/04 10:43:30;;;;;;;2.65;1.27;;;;;;;26.74;40.33;101098.53;4958176;28;20046;-80
2022/07/04 10:46:15;;;;;;;1.95;1.30;;;;;;;27.36;39.29;101091.63;4985625;28;20039;-79
2022/07/04 10:48:54;;;;;;;1.80;1.15;;;;;;;27.80;38.78;101100.59;4991054;28;20042;-78
2022/07/04 10:51:42;;;;;;;1.92;1.20;;;;;;;27.79;39.54;101107.88;4981325;28;20106;-79
2022/07/04 10:54:20;;;;;;;1.70;1.27;;;;;;;27.76;37.81;101109.00;4960403;28;20081;-79
2022/07/04 10:57:11;;;;;;;1.88;1.25;;;;;;;27.21;36.45;101099.19;4973141;28;20573;-80
2022/07/04 10:59:40;;;;;;;1.30;1.10;;;;;;;26.54;38.65;101096.56;4987474;28;20077;-79
2022/07/04 11:02:07;;;;;;;1.55;1.17;;;;;;;26.15;40.03;101096.03;4963967;28;20046;-79
2022/07/04 11:05:09;;;;;;;1.40;1.10;;;;;;;25.84;39.60;101107.53;4985611;28;20038;-78
2022/07/04 11:07:35;;;;;;;1.33;1.23;;;;;;;26.31;39.00;101093.81;4957012;28;20050;-78
2022/07/04 11:10:12;;;;;;;1.52;1.35;;;;;;;26.69;37.20;101092.63;4975298;28;20035;-79
2022/07/04 11:12:54;;;;;;;1.55;1.40;;;;;;;26.42;38.66;101087.59;4985761;28;20039;-78
2022/07/04 11:15:24;;;;;;;2.50;1.40;;;;;;;25.80;38.64;101096.91;4974305;28;20419;-79
2022/07/04 11:17:52;;;;;;;1.33;1.23;;;;;;;25.39;40.59;101096.47;4989652;28;20097;-82
2022/07/04 11:20:19;;;;;;;3.40;1.20;;;;;;;25.04;42.27;101091.03;4971269;28;20041;-81
2022/07/04 11:22:46;;;;;;;2.67;1.30;;;;;;;25.67;40.75;101089.84;4979681;28;20100;-82
2022/07/04 11:25:13;;;;;;;2.38;1.30;;;;;;;26.17;39.56;101085.94;4979289;28;20035;-82
2022/07/04 11:27:41;;;;;;;1.85;1.20;;;;;;;26.90;38.44;101092.69;4979598;28;20428;-82
2022/07/04 11:30:09;;;;;;;3.40;1.30;;;;;;;26.93;36.17;101084.34;4956814;28;20031;-83
2022/07/04 11:32:43;;;;;;;1.20;1.10;;;;;;;27.09;35.69;101078.53;4982627;28;20042;-83
2022/07/04 11:35:12;;;;;;;1.63;1.40;;;;;;;26.82;33.94;101077.09;4968624;28;20050;-82
2022/07/04 11:37:43;;;;;;;2.25;1.17;;;;;;;26.63;36.11;101076.84;4979797;28;20046;-81
2022/07/04 11:45:53;;;;;;;2.83;1.40;;;;;;;27.54;34.43;101062.06;4976851;28;20046;-83